Time;durP1;ratioP1;P1;durP2;ratioP2;P2;SDS_P1;SDS_P2;PMS_P1;PMS_P2;Temp;Humidity;BMP_temperature;BMP_pressure;BME280_temperature;BME280_humidity;BME280_pressure;Samples;Min_cycle;Max_cycle;Signal;HPM_P1;HPM_P2
2022/10/16 00:00:35;;;;;;;;;0.00;0.00;;;;;;;;5085431;28;44796;-77
2022/10/16 00:09:27;;;;;;;;;2.00;1.00;;;;;;;;5061635;28;45328;-80
2022/10/16 00:12:40;;;;;;;;;1.00;1.00;;;;;;;;5088002;27;44766;-78
2022/10/16 00:15:29;;;;;;;;;1.00;1.00;;;;;;;;5084575;27;45373;-78
2022/10/16 00:18:00;;;;;;;;;1.00;1.00;;;;;;;;5080829;28;45311;-77
2022/10/16 00:20:33;;;;;;;;;1.00;1.00;;;;;;;;5088512;27;45477;-76
2022/10/16 00:23:28;;;;;;;;;1.00;0.75;;;;;;;;5102373;27;45287;-76
2022/10/16 00:26:13;;;;;;;;;2.00;1.25;;;;;;;;5076735;28;46748;-78
2022/10/16 00:28:40;;;;;;;;;1.00;1.00;;;;;;;;5095401;27;45261;-77
2022/10/16 00:31:07;;;;;;;;;0.00;0.00;;;;;;;;5083931;28;44726;-76
2022/10/16 00:33:45;;;;;;;;;1.00;1.00;;;;;;;;5107092;27;45432;-77
2022/10/16 00:36:13;;;;;;;;;0.50;0.50;;;;;;;;5111987;27;44851;-75
2022/10/16 00:39:00;;;;;;;;;;;;;;;;;;;;;
2022/10/16 00:41:29;;;;;;;;;1.00;1.00;;;;;;;;5090784;28;73548;-77
2022/10/16 00:43:58;;;;;;;;;0.50;0.50;;;;;;;;5079678;27;45438;-75
2022/10/16 00:46:35;;;;;;;;;1.50;1.00;;;;;;;;5092658;28;45462;-74
2022/10/16 00:49:18;;;;;;;;;0.00;0.00;;;;;;;;5087159;28;45307;-77
2022/10/16 00:55:10;;;;;;;;;0.00;0.00;;;;;;;;5044983;28;44844;-76
2022/10/16 00:57:42;;;;;;;;;0.00;0.00;;;;;;;;5084045;28;45430;-77
2022/10/16 01:00:12;;;;;;;;;1.50;0.25;;;;;;;;5074486;28;47414;-79
2022/10/16 01:02:46;;;;;;;;;0.50;0.50;;;;;;;;5092827;27;45430;-75
2022/10/16 01:05:14;;;;;;;;;0.00;0.00;;;;;;;;5080352;27;45453;-76
2022/10/16 01:07:56;;;;;;;;;2.75;2.75;;;;;;;;5097774;27;45347;-75
2022/10/16 01:10:40;;;;;;;;;0.00;0.00;;;;;;;;5100772;27;45473;-76
2022/10/16 01:13:28;;;;;;;;;0.00;0.00;;;;;;;;5086185;28;45453;-75
2022/10/16 01:16:05;;;;;;;;;1.00;1.00;;;;;;;;5041431;28;45790;-77
2022/10/16 01:18:41;;;;;;;;;0.00;0.00;;;;;;;;5042995;27;45525;-77
2022/10/16 01:21:38;;;;;;;;;1.25;0.00;;;;;;;;5069858;27;45453;-76
2022/10/16 01:24:15;;;;;;;;;0.50;0.50;;;;;;;;5054718;28;45797;-75
2022/10/16 01:26:44;;;;;;;;;1.25;0.50;;;;;;;;5067636;27;45892;-76
2022/10/16 01:29:17;;;;;;;;;2.00;1.00;;;;;;;;5066405;27;45680;-76
2022/10/16 01:31:45;;;;;;;;;0.50;0.50;;;;;;;;5070449;27;45648;-76
2022/10/16 01:34:10;;;;;;;;;0.00;0.00;;;;;;;;5063031;28;45754;-76
2022/10/16 01:36:50;;;;;;;;;1.50;0.50;;;;;;;;5079250;27;45722;-76
2022/10/16 01:39:24;;;;;;;;;0.00;0.00;;;;;;;;5066688;27;45809;-77
2022/10/16 01:42:04;;;;;;;;;2.25;0.00;;;;;;;;5072334;27;47170;-77
2022/10/16 01:44:56;;;;;;;;;1.25;0.25;;;;;;;;5065955;27;45321;-77
2022/10/16 01:47:50;;;;;;;;;0.25;0.25;;;;;;;;5053594;28;45829;-77
2022/10/16 01:50:25;;;;;;;;;1.75;0.00;;;;;;;;5064388;27;45457;-75
2022/10/16 01:52:56;;;;;;;;;2.00;0.75;;;;;;;;5065568;27;46162;-77
2022/10/16 01:55:29;;;;;;;;;1.25;0.00;;;;;;;;5041503;28;45754;-76
2022/10/16 01:58:00;;;;;;;;;0.25;0.00;;;;;;;;5044131;28;45395;-77
2022/10/16 02:00:34;;;;;;;;;1.00;1.00;;;;;;;;5060838;27;45435;-77
2022/10/16 02:03:04;;;;;;;;;0.00;0.00;;;;;;;;5074794;27;45566;-78
2022/10/16 02:05:33;;;;;;;;;0.00;0.00;;;;;;;;5065235;27;45517;-76
2022/10/16 02:08:02;;;;;;;;;0.25;0.25;;;;;;;;5075963;27;45754;-78
2022/10/16 02:10:35;;;;;;;;;0.00;0.00;;;;;;;;5071091;28;45684;-76
2022/10/16 02:13:06;;;;;;;;;0.00;0.00;;;;;;;;5083965;27;46736;-75
2022/10/16 02:15:31;;;;;;;;;0.00;0.00;;;;;;;;5088341;27;45533;-75
2022/10/16 02:18:04;;;;;;;;;0.00;0.00;;;;;;;;5062595;28;45518;-76
2022/10/16 02:20:34;;;;;;;;;1.25;1.00;;;;;;;;5080916;27;45784;-76
2022/10/16 02:23:01;;;;;;;;;0.00;0.00;;;;;;;;5082581;27;46013;-75
2022/10/16 02:25:28;;;;;;;;;0.00;0.00;;;;;;;;5075928;28;45394;-75
2022/10/16 02:27:57;;;;;;;;;0.00;0.00;;;;;;;;5071636;27;45479;-77
2022/10/16 02:30:26;;;;;;;;;2.00;0.00;;;;;;;;5068407;27;45455;-78
2022/10/16 02:33:00;;;;;;;;;0.00;0.00;;;;;;;;5076639;27;46197;-77
2022/10/16 02:35:30;;;;;;;;;0.00;0.00;;;;;;;;5075533;27;45417;-76
2022/10/16 02:37:59;;;;;;;;;0.00;0.00;;;;;;;;5058648;28;45846;-78
2022/10/16 02:40:37;;;;;;;;;0.00;0.00;;;;;;;;5076173;27;45836;-76
2022/10/16 02:43:09;;;;;;;;;1.00;1.00;;;;;;;;5061629;28;45371;-76
2022/10/16 02:45:35;;;;;;;;;0.75;0.75;;;;;;;;5084016;27;45491;-76
2022/10/16 02:48:01;;;;;;;;;0.00;0.00;;;;;;;;5052103;28;45778;-76
2022/10/16 02:50:26;;;;;;;;;1.25;1.25;;;;;;;;5063676;27;45442;-76
2022/10/16 02:52:52;;;;;;;;;0.00;0.00;;;;;;;;5075020;27;45957;-76
2022/10/16 02:55:17;;;;;;;;;0.00;0.00;;;;;;;;5057478;28;45766;-76
2022/10/16 02:57:43;;;;;;;;;0.00;0.00;;;;;;;;5083983;27;45903;-76
2022/10/16 03:00:09;;;;;;;;;0.00;0.00;;;;;;;;5075514;28;45725;-74
2022/10/16 03:02:34;;;;;;;;;0.00;0.00;;;;;;;;5076917;27;46667;-76
2022/10/16 03:05:00;;;;;;;;;0.75;0.00;;;;;;;;5079510;27;45388;-75
2022/10/16 03:07:26;;;;;;;;;0.00;0.00;;;;;;;;5055841;28;45565;-74
2022/10/16 03:09:51;;;;;;;;;0.00;0.00;;;;;;;;5072192;27;45877;-78
2022/10/16 03:12:16;;;;;;;;;1.00;1.00;;;;;;;;5067030;28;45680;-76
2022/10/16 03:14:42;;;;;;;;;0.00;0.00;;;;;;;;5086630;27;45869;-77
2022/10/16 03:17:07;;;;;;;;;1.00;1.00;;;;;;;;5083559;27;45994;-76
2022/10/16 03:19:33;;;;;;;;;0.00;0.00;;;;;;;;5055171;28;45966;-75
2022/10/16 03:21:58;;;;;;;;;0.00;0.00;;;;;;;;5084151;27;46108;-76
2022/10/16 03:24:23;;;;;;;;;0.00;0.00;;;;;;;;5076720;27;45370;-76
2022/10/16 03:26:49;;;;;;;;;1.25;0.00;;;;;;;;5082347;27;45370;-76
2022/10/16 03:29:14;;;;;;;;;0.00;0.00;;;;;;;;5081244;27;45714;-76
2022/10/16 03:31:41;;;;;;;;;4.00;0.00;;;;;;;;5070255;27;45491;-76
2022/10/16 03:34:06;;;;;;;;;0.00;0.00;;;;;;;;5058932;27;45643;-76
2022/10/16 03:36:31;;;;;;;;;0.00;0.00;;;;;;;;5079735;27;45398;-76
2022/10/16 03:38:57;;;;;;;;;0.00;0.00;;;;;;;;5076837;27;45541;-77
2022/10/16 03:41:22;;;;;;;;;0.00;0.00;;;;;;;;5076089;27;45831;-76
2022/10/16 03:43:47;;;;;;;;;1.00;0.00;;;;;;;;5076151;27;45492;-76
2022/10/16 03:46:13;;;;;;;;;0.00;0.00;;;;;;;;5074862;27;45745;-76
2022/10/16 03:48:39;;;;;;;;;1.00;0.00;;;;;;;;5073457;27;45440;-80
2022/10/16 03:51:05;;;;;;;;;0.00;0.00;;;;;;;;5079037;27;45316;-78
2022/10/16 03:53:30;;;;;;;;;0.00;0.00;;;;;;;;5077608;27;45474;-78
2022/10/16 03:55:55;;;;;;;;;0.50;0.50;;;;;;;;5092766;27;45425;-77
2022/10/16 03:58:21;;;;;;;;;0.00;0.00;;;;;;;;5073046;28;45400;-80
2022/10/16 04:00:47;;;;;;;;;0.00;0.00;;;;;;;;5075449;27;45472;-78
2022/10/16 04:03:12;;;;;;;;;0.00;0.00;;;;;;;;5086103;27;45569;-76
2022/10/16 04:05:38;;;;;;;;;0.00;0.00;;;;;;;;5082817;27;45646;-76
2022/10/16 04:08:04;;;;;;;;;0.00;0.00;;;;;;;;5090203;27;45760;-77
2022/10/16 04:10:29;;;;;;;;;0.00;0.00;;;;;;;;5079730;27;46713;-77
2022/10/16 04:12:55;;;;;;;;;1.00;0.00;;;;;;;;5071274;27;45435;-77
2022/10/16 04:15:21;;;;;;;;;0.00;0.00;;;;;;;;5065607;27;45544;-76
2022/10/16 04:17:47;;;;;;;;;0.00;0.00;;;;;;;;5063614;28;45677;-78
2022/10/16 04:20:13;;;;;;;;;0.50;0.00;;;;;;;;5054509;28;45374;-78
2022/10/16 04:22:39;;;;;;;;;0.75;0.00;;;;;;;;5075733;27;45462;-76
2022/10/16 04:25:07;;;;;;;;;2.00;1.00;;;;;;;;5065181;28;45676;-80
2022/10/16 04:27:33;;;;;;;;;0.00;0.00;;;;;;;;5049180;27;45900;-78
2022/10/16 04:30:03;;;;;;;;;2.50;1.00;;;;;;;;5081811;27;45466;-82
2022/10/16 04:32:31;;;;;;;;;0.00;0.00;;;;;;;;5077459;27;45783;-82
2022/10/16 04:35:06;;;;;;;;;0.00;0.00;;;;;;;;5079177;27;45709;-82
2022/10/16 04:37:50;;;;;;;;;0.00;0.00;;;;;;;;5067774;27;45765;-80
2022/10/16 04:40:17;;;;;;;;;0.00;0.00;;;;;;;;5072843;27;46615;-81
2022/10/16 04:42:44;;;;;;;;;0.50;0.50;;;;;;;;5068523;27;46017;-81
2022/10/16 04:45:16;;;;;;;;;0.00;0.00;;;;;;;;5043262;28;46094;-79
2022/10/16 04:48:02;;;;;;;;;1.00;0.00;;;;;;;;5063202;27;45526;-81
2022/10/16 04:50:28;;;;;;;;;2.00;1.00;;;;;;;;5058397;27;46509;-78
2022/10/16 04:52:56;;;;;;;;;0.00;0.00;;;;;;;;5031594;28;46744;-82
2022/10/16 04:55:22;;;;;;;;;0.00;0.00;;;;;;;;5073556;27;45902;-78
2022/10/16 04:57:49;;;;;;;;;2.00;0.00;;;;;;;;5043278;28;46419;-82
2022/10/16 05:00:17;;;;;;;;;1.00;1.00;;;;;;;;5070834;27;45421;-79
2022/10/16 05:02:43;;;;;;;;;1.50;1.00;;;;;;;;5071524;27;46002;-80
2022/10/16 05:05:08;;;;;;;;;0.00;0.00;;;;;;;;5054670;28;45902;-79
2022/10/16 05:07:35;;;;;;;;;0.00;0.00;;;;;;;;5063148;28;45802;-79
2022/10/16 05:10:00;;;;;;;;;0.00;0.00;;;;;;;;5079580;27;45820;-79
2022/10/16 05:12:26;;;;;;;;;0.00;0.00;;;;;;;;5054340;28;45534;-81
2022/10/16 05:14:58;;;;;;;;;0.75;0.00;;;;;;;;5076494;27;45636;-80
2022/10/16 05:17:44;;;;;;;;;0.75;0.00;;;;;;;;5054999;28;45743;-80
2022/10/16 05:20:12;;;;;;;;;2.25;0.50;;;;;;;;5067255;27;46247;-81
2022/10/16 05:22:40;;;;;;;;;3.00;3.00;;;;;;;;5047694;28;45732;-79
2022/10/16 05:25:13;;;;;;;;;0.25;0.25;;;;;;;;5043234;28;45581;-81
2022/10/16 05:27:48;;;;;;;;;1.00;1.00;;;;;;;;5047543;28;45535;-81
2022/10/16 05:30:14;;;;;;;;;1.50;0.25;;;;;;;;5050318;28;47139;-78
2022/10/16 05:32:40;;;;;;;;;1.75;0.50;;;;;;;;5052807;28;45462;-80
2022/10/16 05:35:08;;;;;;;;;9.67;7.00;;;;;;;;5054063;28;45493;-80
2022/10/16 05:37:33;;;;;;;;;1.00;1.00;;;;;;;;5050711;28;45425;-79
2022/10/16 05:39:59;;;;;;;;;0.50;0.00;;;;;;;;5029007;28;47082;-79
2022/10/16 05:42:25;;;;;;;;;1.00;1.00;;;;;;;;5054505;28;46357;-80
2022/10/16 05:44:50;;;;;;;;;2.50;1.25;;;;;;;;5053656;28;45826;-79
2022/10/16 05:47:16;;;;;;;;;0.75;0.75;;;;;;;;5056063;28;45726;-81
2022/10/16 05:49:41;;;;;;;;;2.00;0.00;;;;;;;;5060393;28;45684;-79
2022/10/16 05:52:07;;;;;;;;;3.50;0.50;;;;;;;;5055971;28;45551;-79
2022/10/16 05:54:32;;;;;;;;;2.00;2.00;;;;;;;;5055801;28;45398;-79
2022/10/16 05:56:58;;;;;;;;;1.00;1.00;;;;;;;;5041772;28;45727;-80
2022/10/16 05:59:23;;;;;;;;;2.25;0.25;;;;;;;;5056481;28;46054;-78
2022/10/16 06:01:49;;;;;;;;;0.00;0.00;;;;;;;;5032938;28;45529;-79
2022/10/16 06:04:14;;;;;;;;;0.00;0.00;;;;;;;;5055521;28;46305;-80
2022/10/16 06:06:40;;;;;;;;;0.00;0.00;;;;;;;;5060109;28;45465;-77
2022/10/16 06:09:06;;;;;;;;;1.00;1.00;;;;;;;;5070250;28;45443;-77
2022/10/16 06:11:33;;;;;;;;;4.25;2.00;;;;;;;;5036970;28;45442;-78
2022/10/16 06:14:06;;;;;;;;;1.00;1.00;;;;;;;;5058977;28;45586;-79
2022/10/16 06:16:32;;;;;;;;;0.00;0.00;;;;;;;;5058463;28;45720;-77
2022/10/16 06:18:59;;;;;;;;;2.00;0.00;;;;;;;;5036481;28;46973;-79
2022/10/16 06:21:25;;;;;;;;;2.00;1.00;;;;;;;;5030224;28;45430;-77
2022/10/16 06:23:50;;;;;;;;;0.75;0.00;;;;;;;;5034672;28;47616;-78
2022/10/16 06:26:18;;;;;;;;;0.00;0.00;;;;;;;;5029687;28;46711;-76
2022/10/16 06:28:44;;;;;;;;;1.75;1.75;;;;;;;;5025270;28;46434;-76
2022/10/16 06:31:12;;;;;;;;;1.00;1.00;;;;;;;;5030294;28;45425;-77
2022/10/16 06:33:40;;;;;;;;;0.00;0.00;;;;;;;;5052014;28;45743;-78
2022/10/16 06:36:08;;;;;;;;;1.00;1.00;;;;;;;;5034158;28;46105;-79
2022/10/16 06:38:33;;;;;;;;;0.00;0.00;;;;;;;;5027199;28;48257;-78
2022/10/16 06:40:58;;;;;;;;;2.75;1.00;;;;;;;;5030513;28;45802;-78
2022/10/16 06:43:24;;;;;;;;;2.00;2.00;;;;;;;;5044331;28;45580;-81
2022/10/16 06:45:56;;;;;;;;;3.00;2.00;;;;;;;;5027663;28;46984;-78
2022/10/16 06:48:22;;;;;;;;;0.00;0.00;;;;;;;;5030327;28;47639;-79
2022/10/16 06:50:58;;;;;;;;;1.25;1.00;;;;;;;;5037409;28;45791;-79
2022/10/16 06:53:24;;;;;;;;;1.00;1.00;;;;;;;;5049984;28;45949;-81
2022/10/16 06:55:50;;;;;;;;;0.00;0.00;;;;;;;;5049518;28;45995;-78
2022/10/16 06:58:15;;;;;;;;;0.00;0.00;;;;;;;;5054581;28;45773;-80
2022/10/16 07:00:40;;;;;;;;;2.00;1.00;;;;;;;;5049669;28;45530;-77
2022/10/16 07:03:06;;;;;;;;;2.00;0.50;;;;;;;;5043320;28;45543;-79
2022/10/16 07:05:31;;;;;;;;;0.00;0.00;;;;;;;;5031837;28;47040;-78
2022/10/16 07:07:56;;;;;;;;;0.25;0.25;;;;;;;;5039703;28;46813;-77
2022/10/16 07:10:24;;;;;;;;;1.00;1.00;;;;;;;;5028395;28;46011;-78
2022/10/16 07:12:49;;;;;;;;;0.50;0.50;;;;;;;;5030407;28;45972;-77
2022/10/16 07:15:15;;;;;;;;;3.00;1.00;;;;;;;;5042393;28;45510;-77
2022/10/16 07:17:40;;;;;;;;;1.00;0.00;;;;;;;;5046716;28;45936;-78
2022/10/16 07:20:08;;;;;;;;;1.75;1.75;;;;;;;;5052352;28;46024;-84
2022/10/16 07:22:34;;;;;;;;;1.00;1.00;;;;;;;;5051895;28;45766;-81
2022/10/16 07:24:59;;;;;;;;;1.00;1.00;;;;;;;;5064172;28;45695;-79
2022/10/16 07:27:26;;;;;;;;;1.00;1.00;;;;;;;;5064327;27;45409;-79
2022/10/16 07:29:52;;;;;;;;;2.00;2.00;;;;;;;;5057289;27;46017;-77
2022/10/16 07:32:17;;;;;;;;;1.00;1.00;;;;;;;;5045479;27;45443;-78
2022/10/16 07:34:42;;;;;;;;;2.25;1.00;;;;;;;;5066875;27;45328;-78
2022/10/16 07:37:08;;;;;;;;;2.75;2.75;;;;;;;;5053658;27;45609;-78
2022/10/16 07:39:33;;;;;;;;;2.00;0.25;;;;;;;;5070278;27;45615;-78
2022/10/16 07:41:58;;;;;;;;;0.25;0.00;;;;;;;;5045174;27;45845;-78
2022/10/16 07:44:24;;;;;;;;;0.50;0.50;;;;;;;;5081240;27;45892;-78
2022/10/16 07:46:49;;;;;;;;;3.00;3.00;;;;;;;;5052122;28;48522;-78
2022/10/16 07:49:14;;;;;;;;;2.00;2.00;;;;;;;;5067351;27;45494;-78
2022/10/16 07:51:39;;;;;;;;;2.00;1.00;;;;;;;;5073205;27;46081;-77
2022/10/16 07:54:05;;;;;;;;;1.00;1.00;;;;;;;;5038736;28;47055;-78
2022/10/16 07:56:31;;;;;;;;;2.25;2.00;;;;;;;;5065220;28;45482;-77
2022/10/16 07:58:56;;;;;;;;;4.00;1.75;;;;;;;;5047553;28;45561;-77
2022/10/16 08:01:22;;;;;;;;;4.00;2.00;;;;;;;;5052986;27;45865;-77
2022/10/16 08:03:49;;;;;;;;;1.00;1.00;;;;;;;;5070043;27;46081;-79
2022/10/16 08:06:15;;;;;;;;;0.25;0.25;;;;;;;;5064983;27;45453;-77
2022/10/16 08:08:41;;;;;;;;;0.00;0.00;;;;;;;;5057322;27;45794;-80
2022/10/16 08:11:07;;;;;;;;;0.75;0.75;;;;;;;;5065367;27;45759;-80
2022/10/16 08:13:33;;;;;;;;;4.67;4.00;;;;;;;;5077738;27;45835;-81
2022/10/16 08:15:58;;;;;;;;;0.50;0.00;;;;;;;;5060511;27;45844;-80
2022/10/16 08:18:24;;;;;;;;;0.50;0.50;;;;;;;;5076068;27;45825;-80
2022/10/16 08:20:55;;;;;;;;;0.25;0.25;;;;;;;;5071406;27;45452;-80
2022/10/16 08:23:25;;;;;;;;;0.25;0.25;;;;;;;;5052374;28;45569;-81
2022/10/16 08:25:51;;;;;;;;;1.00;1.00;;;;;;;;5068931;27;45787;-80
2022/10/16 08:28:17;;;;;;;;;0.00;0.00;;;;;;;;5081545;27;45851;-80
2022/10/16 08:30:42;;;;;;;;;1.00;1.00;;;;;;;;5083461;27;45480;-82
2022/10/16 08:33:15;;;;;;;;;1.00;0.00;;;;;;;;5077753;27;45337;-82
2022/10/16 08:35:42;;;;;;;;;1.75;0.75;;;;;;;;5068520;28;46104;-83
2022/10/16 08:38:11;;;;;;;;;0.00;0.00;;;;;;;;5056123;28;45740;-82
2022/10/16 08:40:37;;;;;;;;;1.00;1.00;;;;;;;;5071337;27;45556;-82
2022/10/16 08:43:20;;;;;;;;;0.50;0.50;;;;;;;;5060499;28;45429;-80
2022/10/16 08:46:04;;;;;;;;;0.00;0.00;;;;;;;;5075185;28;46601;-85
2022/10/16 08:48:45;;;;;;;;;0.25;0.25;;;;;;;;5063382;27;46001;-81
2022/10/16 08:51:15;;;;;;;;;1.00;1.00;;;;;;;;5048857;27;46157;-81
2022/10/16 08:53:56;;;;;;;;;0.25;0.25;;;;;;;;5060850;27;45558;-79
2022/10/16 08:56:24;;;;;;;;;1.00;0.00;;;;;;;;5057121;28;45418;-79
2022/10/16 08:58:52;;;;;;;;;1.00;1.00;;;;;;;;5073958;27;45431;-79
2022/10/16 09:01:20;;;;;;;;;2.00;2.00;;;;;;;;5072215;27;45743;-79
2022/10/16 09:04:04;;;;;;;;;2.00;1.00;;;;;;;;5044465;28;45934;-80
2022/10/16 09:06:36;;;;;;;;;1.00;1.00;;;;;;;;5059154;27;46409;-78
2022/10/16 09:09:10;;;;;;;;;2.00;1.00;;;;;;;;5055761;27;45423;-77
2022/10/16 09:11:54;;;;;;;;;3.75;1.50;;;;;;;;5056694;27;45719;-82
2022/10/16 09:14:38;;;;;;;;;1.75;1.75;;;;;;;;5065214;27;45695;-76
2022/10/16 09:17:23;;;;;;;;;1.00;1.00;;;;;;;;5055946;27;47633;-83
2022/10/16 09:26:26;;;;;;;;;1.00;1.00;;;;;;;;4981406;28;45833;-85
2022/10/16 09:28:58;;;;;;;;;1.25;1.00;;;;;;;;4990970;28;46330;-81
2022/10/16 09:31:40;;;;;;;;;3.00;3.00;;;;;;;;4969711;28;45393;-80
2022/10/16 09:34:26;;;;;;;;;2.00;2.00;;;;;;;;4972841;28;45453;-85
2022/10/16 09:37:26;;;;;;;;;2.00;1.00;;;;;;;;4984018;28;45883;-80
2022/10/16 09:40:14;;;;;;;;;1.00;1.00;;;;;;;;4951672;28;45589;-79
2022/10/16 09:42:42;;;;;;;;;2.20;1.80;;;;;;;;4969120;28;45392;-76
2022/10/16 09:45:23;;;;;;;;;2.00;2.00;;;;;;;;4974922;28;45587;-76
2022/10/16 09:47:51;;;;;;;;;2.50;2.00;;;;;;;;5041254;28;45586;-78
2022/10/16 09:50:28;;;;;;;;;2.50;2.50;;;;;;;;5062432;28;46241;-81
2022/10/16 09:53:08;;;;;;;;;2.25;2.00;;;;;;;;5054365;28;45332;-79
2022/10/16 09:55:51;;;;;;;;;2.25;2.00;;;;;;;;5065753;28;45378;-82
2022/10/16 09:58:16;;;;;;;;;1.00;1.00;;;;;;;;5040190;28;45478;-81
2022/10/16 10:00:50;;;;;;;;;2.00;2.00;;;;;;;;5046275;28;45567;-81
2022/10/16 10:03:52;;;;;;;;;1.75;1.75;;;;;;;;5041301;28;45434;-84
2022/10/16 10:06:33;;;;;;;;;2.00;2.00;;;;;;;;5006858;28;46186;-82
2022/10/16 10:12:22;;;;;;;;;;;;;;;;;;;;;
2022/10/16 10:14:57;;;;;;;;;3.00;3.00;;;;;;;;5058160;28;71231;-88
2022/10/16 10:21:05;;;;;;;;;2.00;2.00;;;;;;;;5017079;28;45562;-80
2022/10/16 10:23:38;;;;;;;;;4.25;4.25;;;;;;;;5020357;28;45534;-82
2022/10/16 10:26:37;;;;;;;;;3.50;3.50;;;;;;;;5040697;28;45502;-82
2022/10/16 10:29:43;;;;;;;;;3.25;3.25;;;;;;;;5035135;28;45645;-83
2022/10/16 10:35:44;;;;;;;;;;;;;;;;;;;;;
2022/10/16 10:38:19;;;;;;;;;4.75;4.00;;;;;;;;5054763;28;72019;-81
2022/10/16 10:41:17;;;;;;;;;;;;;;;;;;;;;
2022/10/16 10:44:09;;;;;;;;;6.00;6.00;;;;;;;;5058255;28;75360;-84
2022/10/16 10:46:59;;;;;;;;;6.25;6.25;;;;;;;;5035495;28;45647;-88
2022/10/16 10:56:00;;;;;;;;;6.00;5.00;;;;;;;;5018967;28;44801;-87
2022/10/16 11:01:53;;;;;;;;;4.50;4.50;;;;;;;;4930339;28;45406;-87
2022/10/16 11:07:42;;;;;;;;;4.00;4.00;;;;;;;;4913733;28;45374;-91
2022/10/16 11:13:57;;;;;;;;;7.25;4.25;;;;;;;;4906022;28;45428;-83
2022/10/16 11:16:36;;;;;;;;;2.25;2.25;;;;;;;;4910833;28;45447;-79
2022/10/16 11:19:04;;;;;;;;;3.25;3.25;;;;;;;;4935598;28;45567;-81
2022/10/16 11:21:39;;;;;;;;;3.00;2.00;;;;;;;;5004615;28;45486;-83
2022/10/16 11:24:11;;;;;;;;;8.25;6.25;;;;;;;;5056962;28;46684;-77
2022/10/16 11:26:39;;;;;;;;;2.00;2.00;;;;;;;;5038969;28;45305;-76
2022/10/16 11:29:13;;;;;;;;;1.00;1.00;;;;;;;;5058568;28;45446;-78
2022/10/16 11:31:41;;;;;;;;;1.00;1.00;;;;;;;;5062666;28;46509;-79
2022/10/16 11:34:15;;;;;;;;;1.00;1.00;;;;;;;;5067830;28;45507;-78
2022/10/16 11:36:51;;;;;;;;;5.75;5.00;;;;;;;;5075329;28;45471;-77
2022/10/16 11:39:25;;;;;;;;;12.75;11.75;;;;;;;;5054446;28;45355;-79
2022/10/16 11:41:56;;;;;;;;;3.00;3.00;;;;;;;;5057395;28;46355;-78
2022/10/16 11:44:22;;;;;;;;;1.75;1.75;;;;;;;;5055601;28;45527;-78
2022/10/16 11:47:06;;;;;;;;;1.75;0.00;;;;;;;;5045507;28;45364;-77
2022/10/16 11:49:33;;;;;;;;;2.50;2.50;;;;;;;;5065583;28;45703;-76
2022/10/16 11:52:07;;;;;;;;;6.00;2.00;;;;;;;;5048913;28;47673;-77
2022/10/16 11:54:49;;;;;;;;;2.00;1.00;;;;;;;;5072569;28;45483;-78
2022/10/16 11:57:26;;;;;;;;;1.50;1.25;;;;;;;;5064999;28;45440;-77
2022/10/16 11:59:55;;;;;;;;;1.00;1.00;;;;;;;;5032215;28;45794;-80
2022/10/16 12:02:33;;;;;;;;;1.00;1.00;;;;;;;;5047192;28;46352;-79
2022/10/16 12:05:17;;;;;;;;;3.25;2.50;;;;;;;;5039184;28;45426;-77
2022/10/16 12:07:49;;;;;;;;;3.00;2.25;;;;;;;;5056152;28;45414;-77
2022/10/16 12:10:21;;;;;;;;;2.25;1.00;;;;;;;;5061258;28;45896;-80
2022/10/16 12:12:47;;;;;;;;;3.75;2.50;;;;;;;;5048719;28;46264;-79
2022/10/16 12:15:15;;;;;;;;;2.00;2.00;;;;;;;;5071696;28;44701;-78
2022/10/16 12:17:40;;;;;;;;;2.00;1.00;;;;;;;;5061169;28;45383;-79
2022/10/16 12:20:12;;;;;;;;;1.75;1.75;;;;;;;;5050541;28;45621;-77
2022/10/16 12:22:41;;;;;;;;;0.75;0.75;;;;;;;;5077949;27;46774;-78
2022/10/16 12:25:19;;;;;;;;;2.00;1.00;;;;;;;;5084834;27;45486;-79
2022/10/16 12:27:44;;;;;;;;;1.00;1.00;;;;;;;;5067676;28;45709;-78
2022/10/16 12:30:20;;;;;;;;;2.25;2.00;;;;;;;;5065561;28;45302;-78
2022/10/16 12:32:52;;;;;;;;;1.75;1.75;;;;;;;;5083858;28;45296;-79
2022/10/16 12:35:20;;;;;;;;;1.50;1.00;;;;;;;;5086081;28;45386;-77
2022/10/16 12:37:46;;;;;;;;;0.00;0.00;;;;;;;;5065969;28;45727;-79
2022/10/16 12:40:13;;;;;;;;;1.00;1.00;;;;;;;;5083831;28;45478;-80
2022/10/16 12:42:38;;;;;;;;;1.00;1.00;;;;;;;;5083480;28;45718;-79
2022/10/16 12:45:24;;;;;;;;;1.00;1.00;;;;;;;;5083139;28;45384;-80
2022/10/16 12:47:51;;;;;;;;;1.00;1.00;;;;;;;;5073221;28;45523;-78
2022/10/16 12:50:31;;;;;;;;;1.00;1.00;;;;;;;;5084212;28;45922;-78
2022/10/16 12:52:56;;;;;;;;;1.75;1.75;;;;;;;;5084723;27;45438;-79
2022/10/16 12:55:22;;;;;;;;;1.00;1.00;;;;;;;;5066840;27;45265;-78
2022/10/16 12:58:13;;;;;;;;;0.00;0.00;;;;;;;;5082618;28;45647;-78
2022/10/16 13:00:50;;;;;;;;;1.00;1.00;;;;;;;;5071721;28;45259;-79
2022/10/16 13:03:34;;;;;;;;;1.00;1.00;;;;;;;;5066791;28;46281;-77
2022/10/16 13:06:03;;;;;;;;;2.00;0.50;;;;;;;;5065645;28;45834;-84
2022/10/16 13:08:28;;;;;;;;;1.00;1.00;;;;;;;;5075334;28;45757;-77
2022/10/16 13:10:56;;;;;;;;;1.00;1.00;;;;;;;;5064031;28;45363;-78
2022/10/16 13:13:34;;;;;;;;;1.00;1.00;;;;;;;;5081678;28;45633;-77
2022/10/16 13:16:00;;;;;;;;;1.50;1.50;;;;;;;;5080413;28;45705;-78
2022/10/16 13:18:50;;;;;;;;;3.00;1.25;;;;;;;;5076484;28;45621;-81
2022/10/16 13:21:41;;;;;;;;;0.00;0.00;;;;;;;;5080834;28;45790;-82
2022/10/16 13:24:29;;;;;;;;;1.25;1.00;;;;;;;;5065609;28;46349;-81
2022/10/16 13:39:44;;;;;;;;;7.00;4.00;;;;;;;;5004071;28;45471;-82
2022/10/16 13:43:02;;;;;;;;;;;;;;;;;;;;;
2022/10/16 13:45:56;;;;;;;;;2.00;2.00;;;;;;;;4937499;28;74149;-81
2022/10/16 13:48:54;;;;;;;;;2.25;2.25;;;;;;;;5052784;28;45397;-82
2022/10/16 13:51:58;;;;;;;;;4.75;3.50;;;;;;;;5055151;28;45687;-82
2022/10/16 13:55:07;;;;;;;;;4.00;4.00;;;;;;;;5057131;28;45663;-81
2022/10/16 13:58:04;;;;;;;;;3.00;3.00;;;;;;;;5055043;28;45458;-81
2022/10/16 14:00:36;;;;;;;;;1.00;1.00;;;;;;;;4982422;28;45429;-81
2022/10/16 14:03:13;;;;;;;;;3.25;3.25;;;;;;;;5034987;28;45408;-81
2022/10/16 14:06:09;;;;;;;;;3.75;3.75;;;;;;;;5051738;28;45478;-81
2022/10/16 14:12:00;;;;;;;;;3.00;3.00;;;;;;;;5057892;28;45463;-81
2022/10/16 14:14:39;;;;;;;;;2.25;2.25;;;;;;;;5044925;28;45491;-82
2022/10/16 14:17:27;;;;;;;;;2.50;2.00;;;;;;;;5064163;28;45398;-81
2022/10/16 14:23:35;;;;;;;;;1.75;1.75;;;;;;;;5072500;27;45632;-81
2022/10/16 14:26:20;;;;;;;;;2.25;2.25;;;;;;;;5030349;28;44838;-80
2022/10/16 14:29:31;;;;;;;;;3.75;3.75;;;;;;;;5027049;28;45858;-80
2022/10/16 14:35:30;;;;;;;;;4.00;3.00;;;;;;;;4950082;28;45907;-81
2022/10/16 14:41:25;;;;;;;;;;;;;;;;;;;;;
2022/10/16 14:46:42;;;;;;;;;3.00;3.00;;;;;;;;5095714;27;46339;-82
2022/10/16 14:52:51;;;;;;;;;2.75;2.75;;;;;;;;5040908;28;45492;-81
2022/10/16 14:55:17;;;;;;;;;2.00;2.00;;;;;;;;5041487;28;45498;-84
2022/10/16 15:00:57;;;;;;;;;3.50;3.50;;;;;;;;4976626;28;45472;-84
2022/10/16 15:03:30;;;;;;;;;3.00;3.00;;;;;;;;5011154;28;45365;-81
2022/10/16 15:06:02;;;;;;;;;2.00;2.00;;;;;;;;5024983;28;45498;-84
2022/10/16 15:08:37;;;;;;;;;3.25;3.25;;;;;;;;5084501;27;45289;-83
2022/10/16 15:11:02;;;;;;;;;3.00;3.00;;;;;;;;5085202;27;45441;-83
2022/10/16 15:13:35;;;;;;;;;3.00;3.00;;;;;;;;5079464;28;45194;-82
2022/10/16 15:16:14;;;;;;;;;4.00;3.00;;;;;;;;5084266;28;45330;-80
2022/10/16 15:21:45;;;;;;;;;4.25;4.00;;;;;;;;5073404;27;45507;-81
2022/10/16 15:24:16;;;;;;;;;7.00;4.75;;;;;;;;5066654;28;45492;-85
2022/10/16 15:26:41;;;;;;;;;4.75;3.75;;;;;;;;5077518;28;45402;-81
2022/10/16 15:29:36;;;;;;;;;4.00;4.00;;;;;;;;5092873;27;46549;-88
2022/10/16 15:32:01;;;;;;;;;4.75;3.75;;;;;;;;5082316;27;45485;-84
2022/10/16 15:34:27;;;;;;;;;3.00;3.00;;;;;;;;5082492;27;45290;-84
2022/10/16 15:37:01;;;;;;;;;9.25;6.75;;;;;;;;5066360;28;45781;-83
2022/10/16 15:39:52;;;;;;;;;5.50;5.50;;;;;;;;5067729;28;48030;-83
2022/10/16 15:42:17;;;;;;;;;7.00;6.00;;;;;;;;5081173;27;45791;-84
2022/10/16 15:44:42;;;;;;;;;4.50;3.00;;;;;;;;5082762;27;45722;-81
2022/10/16 15:47:07;;;;;;;;;3.75;3.75;;;;;;;;5063833;28;46782;-80
2022/10/16 15:49:33;;;;;;;;;5.00;4.00;;;;;;;;5065762;28;47084;-80
2022/10/16 15:51:58;;;;;;;;;7.50;6.50;;;;;;;;5082143;27;45360;-81
2022/10/16 15:54:23;;;;;;;;;4.00;3.75;;;;;;;;5062430;28;45486;-80
2022/10/16 15:56:49;;;;;;;;;3.50;3.00;;;;;;;;5079886;27;45571;-81
2022/10/16 15:59:14;;;;;;;;;4.75;4.75;;;;;;;;5083127;28;45700;-81
2022/10/16 16:01:39;;;;;;;;;6.00;6.00;;;;;;;;5084640;28;45653;-81
2022/10/16 16:04:05;;;;;;;;;6.25;4.00;;;;;;;;5096047;27;45423;-81
2022/10/16 16:06:30;;;;;;;;;8.67;7.00;;;;;;;;5066122;28;45481;-82
2022/10/16 16:08:55;;;;;;;;;5.00;5.00;;;;;;;;5095216;27;46229;-79
2022/10/16 16:11:23;;;;;;;;;5.75;5.75;;;;;;;;5067750;27;45744;-78
2022/10/16 16:13:48;;;;;;;;;7.00;7.00;;;;;;;;5078706;27;45437;-79
2022/10/16 16:16:15;;;;;;;;;7.00;5.00;;;;;;;;5062564;27;46777;-81
2022/10/16 16:18:41;;;;;;;;;9.00;6.00;;;;;;;;5070731;28;48059;-77
2022/10/16 16:21:06;;;;;;;;;9.50;6.50;;;;;;;;5081664;28;45308;-79
2022/10/16 16:23:32;;;;;;;;;6.00;4.75;;;;;;;;5067100;28;45593;-80
2022/10/16 16:26:14;;;;;;;;;4.25;3.25;;;;;;;;5066306;28;45480;-80
2022/10/16 16:28:41;;;;;;;;;6.25;6.25;;;;;;;;5059904;28;47035;-79
2022/10/16 16:31:06;;;;;;;;;4.75;4.75;;;;;;;;5061535;28;45530;-79
2022/10/16 16:33:32;;;;;;;;;4.00;4.00;;;;;;;;5086094;28;45313;-79
2022/10/16 16:36:00;;;;;;;;;6.00;5.00;;;;;;;;5052943;28;46955;-79
2022/10/16 16:38:26;;;;;;;;;7.00;7.00;;;;;;;;5082204;27;45410;-80